createdAt,value
2022-12-01T00:00:55.244Z,0.11
2022-12-01T00:04:29.115Z,0.05
2022-12-01T00:08:06.942Z,0.04
2022-12-01T00:12:03.555Z,0.09
2022-12-01T00:15:34.529Z,0.14
2022-12-01T00:19:03.093Z,0.22
2022-12-01T00:22:45.599Z,0.29
2022-12-01T00:26:19.390Z,0.36
2022-12-01T00:29:56.181Z,0.39
2022-12-01T00:33:53.240Z,0.36
2022-12-01T00:37:35.262Z,0.32
2022-12-01T00:41:16.034Z,0.29
2022-12-01T00:44:56.441Z,0.28
2022-12-01T00:48:18.419Z,0.23
2022-12-01T00:51:56.382Z,0.18
2022-12-01T00:55:34.044Z,0.21
2022-12-01T00:59:11.960Z,0.24
2022-12-01T01:03:08.339Z,0.30
2022-12-01T01:06:30.153Z,0.35
2022-12-01T01:10:26.326Z,0.39
2022-12-01T01:13:47.975Z,0.38
2022-12-01T01:17:25.572Z,0.37
2022-12-01T01:21:22.236Z,0.36
2022-12-01T01:25:03.058Z,0.33
2022-12-01T01:28:46.251Z,0.29
2022-12-01T01:32:26.707Z,0.25
2022-12-01T01:35:48.082Z,0.26
2022-12-01T01:39:25.764Z,0.25
2022-12-01T01:43:09.994Z,0.29
2022-12-01T01:46:41.282Z,0.37
2022-12-01T01:50:22.895Z,0.41
2022-12-01T01:54:02.339Z,0.43
2022-12-01T01:57:53.546Z,0.42
2022-12-01T02:01:34.551Z,0.39
2022-12-01T02:05:24.261Z,0.36
2022-12-01T02:08:46.141Z,0.30
2022-12-01T02:12:49.003Z,0.28
2022-12-01T02:16:31.264Z,0.31
2022-12-01T02:20:29.674Z,0.36
2022-12-01T02:24:19.302Z,0.41
2022-12-01T02:28:20.101Z,0.46
2022-12-01T02:32:06.238Z,0.47
2022-12-01T02:36:02.066Z,0.43
2022-12-01T02:39:34.503Z,0.38
2022-12-01T02:43:33.076Z,0.33
2022-12-01T02:47:14.702Z,0.29
2022-12-01T02:50:39.952Z,0.23
2022-12-01T02:54:15.739Z,0.19
2022-12-01T02:57:52.417Z,0.20
2022-12-01T03:01:46.093Z,0.27
2022-12-01T03:05:42.542Z,0.30
2022-12-01T03:09:17.244Z,0.33
2022-12-01T03:13:20.684Z,0.31
2022-12-01T03:16:54.186Z,0.28
2022-12-01T03:20:28.894Z,0.26
2022-12-01T03:24:19.523Z,0.22
2022-12-01T03:28:00.591Z,0.18
2022-12-01T03:31:33.291Z,0.17
2022-12-01T03:35:19.362Z,0.18
2022-12-01T03:39:06.263Z,0.21
2022-12-01T03:42:37.296Z,0.23
2022-12-01T03:46:22.306Z,0.26
2022-12-01T03:49:47.312Z,0.28
2022-12-01T03:53:52.306Z,0.28
2022-12-01T03:57:55.602Z,0.30
2022-12-01T04:01:17.762Z,0.30
2022-12-01T04:04:55.233Z,0.26
2022-12-01T04:08:51.716Z,0.22
2022-12-01T04:12:29.945Z,0.22
2022-12-01T04:15:54.428Z,0.24
2022-12-01T04:19:30.528Z,0.26
2022-12-01T04:23:08.180Z,0.29
2022-12-01T04:26:46.124Z,0.31
2022-12-01T04:30:23.493Z,0.32
2022-12-01T04:34:20.377Z,0.32
2022-12-01T04:37:42.228Z,0.31
2022-12-01T04:41:38.826Z,0.28
2022-12-01T04:45:00.392Z,0.26
2022-12-01T04:48:39.430Z,0.25
2022-12-01T04:52:36.856Z,0.25
2022-12-01T04:56:02.376Z,0.29
2022-12-01T04:59:36.279Z,0.32
2022-12-01T05:03:15.331Z,0.33
2022-12-01T05:07:10.306Z,0.35
2022-12-01T05:10:35.734Z,0.37
2022-12-01T05:14:28.388Z,0.34
2022-12-01T05:18:09.300Z,0.31
2022-12-01T05:21:50.421Z,0.34
2022-12-01T05:25:31.359Z,0.36
2022-12-01T05:28:53.879Z,0.41
2022-12-01T05:32:31.023Z,0.45
2022-12-01T05:36:09.047Z,0.47
2022-12-01T05:39:46.643Z,0.47
2022-12-01T05:43:29.112Z,0.46
2022-12-01T05:47:01.647Z,0.42
2022-12-01T05:50:39.925Z,0.39
2022-12-01T05:54:16.991Z,0.34
2022-12-01T05:57:54.628Z,0.32
2022-12-01T06:01:51.109Z,0.31
2022-12-01T06:05:13.179Z,0.38
2022-12-01T06:08:50.763Z,0.43
2022-12-01T06:12:28.894Z,0.46
2022-12-01T06:16:07.098Z,0.50
2022-12-01T06:19:43.825Z,0.51
2022-12-01T06:23:24.283Z,0.48
2022-12-01T06:26:59.250Z,0.43
2022-12-01T06:30:36.818Z,0.40
2022-12-01T06:34:33.507Z,0.39
2022-12-01T06:37:55.120Z,0.39
2022-12-01T06:41:32.690Z,0.41
2022-12-01T06:45:11.120Z,0.44
2022-12-01T06:48:49.234Z,0.51
2022-12-01T06:52:25.989Z,0.54
2022-12-01T06:56:05.187Z,0.54
2022-12-01T06:59:59.895Z,0.49
2022-12-01T07:03:21.937Z,0.45
2022-12-01T07:07:00.049Z,0.44
2022-12-01T07:10:37.262Z,0.45
2022-12-01T07:14:23.754Z,0.49
2022-12-01T07:18:11.593Z,0.50
2022-12-01T07:21:33.200Z,0.52
2022-12-01T07:25:29.793Z,0.54
2022-12-01T07:28:52.977Z,0.51
2022-12-01T07:32:28.902Z,0.49
2022-12-01T07:36:08.076Z,0.45
2022-12-01T07:39:44.039Z,0.44
2022-12-01T07:43:22.342Z,0.48
2022-12-01T07:47:18.500Z,0.55
2022-12-01T07:50:40.343Z,0.58
2022-12-01T07:54:20.365Z,0.57
2022-12-01T07:57:55.852Z,0.55
2022-12-01T08:01:33.654Z,0.53
2022-12-01T08:05:29.971Z,0.51
2022-12-01T08:08:51.905Z,0.50
2022-12-01T08:12:48.123Z,0.52
2022-12-01T08:16:30.253Z,0.58
2022-12-01T08:20:11.537Z,0.60
2022-12-01T08:23:33.780Z,0.62
2022-12-01T08:27:29.813Z,0.59
2022-12-01T08:30:51.420Z,0.60
2022-12-01T08:34:29.187Z,0.62
2022-12-01T08:38:06.726Z,0.62
2022-12-01T08:41:44.387Z,0.63
2022-12-01T08:45:40.940Z,0.67
2022-12-01T08:49:05.034Z,0.69
2022-12-01T08:52:59.009Z,0.70
2022-12-01T08:56:24.594Z,0.72
2022-12-01T08:59:58.545Z,0.72
2022-12-01T09:03:37.783Z,0.76
2022-12-01T09:07:19.088Z,0.73
2022-12-01T09:11:17.074Z,0.74
2022-12-01T09:14:41.169Z,0.77
2022-12-01T09:18:35.708Z,0.83
2022-12-01T09:21:57.461Z,0.87
2022-12-01T09:25:53.871Z,0.91
2022-12-01T09:29:16.836Z,0.90
2022-12-01T09:32:53.338Z,0.88
2022-12-01T09:36:33.329Z,0.84
2022-12-01T09:40:13.866Z,0.83
2022-12-01T09:44:01.955Z,0.85
2022-12-01T09:47:46.121Z,0.90
2022-12-01T09:51:28.925Z,0.91
2022-12-01T09:54:52.286Z,0.93
2022-12-01T09:58:31.047Z,0.93
2022-12-01T10:02:26.779Z,0.92
2022-12-01T10:06:27.322Z,0.88
2022-12-01T10:09:58.556Z,0.83
2022-12-01T10:13:47.003Z,0.82
2022-12-01T10:17:46.658Z,0.86
2022-12-01T10:21:28.457Z,0.91
2022-12-01T10:25:10.481Z,0.98
2022-12-01T10:28:58.284Z,0.99
2022-12-01T10:32:32.645Z,1.01
2022-12-01T10:36:17.641Z,0.98
2022-12-01T10:39:58.765Z,0.94
2022-12-01T10:43:31.756Z,0.91
2022-12-01T10:46:58.765Z,0.94
2022-12-01T10:51:12.981Z,0.91
2022-12-01T10:54:40.025Z,0.88
2022-12-01T10:58:18.912Z,0.84
2022-12-01T11:02:20.114Z,0.82
2022-12-01T11:05:42.513Z,0.77
2022-12-01T11:09:26.383Z,0.78
2022-12-01T11:13:27.969Z,0.79
2022-12-01T11:16:52.375Z,0.81
2022-12-01T11:20:31.918Z,0.86
2022-12-01T11:24:26.038Z,0.88
2022-12-01T11:28:19.609Z,0.90
2022-12-01T11:31:44.710Z,0.93
2022-12-01T11:35:47.438Z,0.93
2022-12-01T11:39:41.135Z,0.90
2022-12-01T11:43:29.816Z,0.89
2022-12-01T11:47:07.820Z,0.89
2022-12-01T11:51:05.266Z,0.93
2022-12-01T11:55:17.407Z,0.98
2022-12-01T11:58:39.459Z,1.04
2022-12-01T12:02:50.706Z,1.08
2022-12-01T12:06:42.466Z,1.07
2022-12-01T12:10:33.108Z,1.03
2022-12-01T12:14:13.640Z,0.99
2022-12-01T12:17:51.802Z,0.97
2022-12-01T12:21:44.182Z,0.93
2022-12-01T12:25:42.676Z,0.89
2022-12-01T12:30:03.644Z,0.88
2022-12-01T12:33:44.113Z,0.85
2022-12-01T12:37:35.050Z,0.81
2022-12-01T12:41:18.827Z,0.75
2022-12-01T12:45:02.717Z,0.71
2022-12-01T12:49:35.588Z,0.72
2022-12-01T12:53:24.092Z,0.78
2022-12-01T12:56:49.487Z,0.82
2022-12-01T13:00:49.879Z,0.81
2022-12-01T13:04:26.985Z,0.80
2022-12-01T13:07:56.486Z,0.81
2022-12-01T13:11:38.431Z,0.79
2022-12-01T13:15:16.917Z,0.80
2022-12-01T13:18:53.817Z,0.79
2022-12-01T13:22:29.628Z,0.79
2022-12-01T13:26:04.148Z,0.77
2022-12-01T13:29:44.027Z,0.74
2022-12-01T13:33:16.774Z,0.70
2022-12-01T13:36:53.915Z,0.66
2022-12-01T13:40:30.647Z,0.63
2022-12-01T13:44:39.732Z,0.63
2022-12-01T13:48:05.457Z,0.67
2022-12-01T13:52:18.467Z,0.68
2022-12-01T13:55:59.296Z,0.66
2022-12-01T13:59:59.092Z,0.63
2022-12-01T14:03:40.596Z,0.56
2022-12-01T14:07:19.159Z,0.53
2022-12-01T14:10:41.588Z,0.54
2022-12-01T14:14:40.336Z,0.55
2022-12-01T14:18:19.962Z,0.58
2022-12-01T14:21:51.517Z,0.57
2022-12-01T14:25:40.091Z,0.55
2022-12-01T14:29:01.597Z,0.49
2022-12-01T14:32:39.269Z,0.43
2022-12-01T14:36:22.984Z,0.40
2022-12-01T14:40:06.905Z,0.40
2022-12-01T14:43:51.856Z,0.40
2022-12-01T14:47:22.907Z,0.41
2022-12-01T14:51:29.918Z,0.41
2022-12-01T14:54:54.297Z,0.37
2022-12-01T14:58:54.894Z,0.32
2022-12-01T15:02:23.222Z,0.30
2022-12-01T15:06:22.054Z,0.30
2022-12-01T15:10:04.721Z,0.31
2022-12-01T15:13:33.576Z,0.31
2022-12-01T15:17:08.881Z,0.31
2022-12-01T15:20:47.566Z,0.30
2022-12-01T15:24:24.458Z,0.27
2022-12-01T15:28:13.451Z,0.25
2022-12-01T15:31:55.018Z,0.24
2022-12-01T15:35:21.213Z,0.26
2022-12-01T15:38:54.807Z,0.29
2022-12-01T15:43:06.865Z,0.29
2022-12-01T15:46:47.511Z,0.28
2022-12-01T15:50:31.025Z,0.23
2022-12-01T15:53:59.740Z,0.16
2022-12-01T15:57:53.977Z,0.14
2022-12-01T16:01:20.386Z,0.16
2022-12-01T16:05:12.207Z,0.18
2022-12-01T16:08:34.476Z,0.17
2022-12-01T16:12:34.197Z,0.14
2022-12-01T16:15:56.357Z,0.12
2022-12-01T16:20:17.491Z,0.09
2022-12-01T16:24:02.378Z,0.06
2022-12-01T16:27:29.764Z,0.03
2022-12-01T16:31:06.390Z,0.02
2022-12-01T16:34:56.769Z,0.06
2022-12-01T16:38:38.274Z,0.12
2022-12-01T16:42:00.950Z,0.18
2022-12-01T16:45:37.859Z,0.20
2022-12-01T16:49:15.532Z,0.17
2022-12-01T16:52:53.264Z,0.13
2022-12-01T16:56:30.931Z,0.11
2022-12-01T17:00:09.561Z,0.08
2022-12-01T17:03:46.153Z,0.03
2022-12-01T17:07:42.706Z,-0.02
2022-12-01T17:11:06.991Z,-0.00
2022-12-01T17:15:00.969Z,0.03
2022-12-01T17:18:24.169Z,0.09
2022-12-01T17:22:19.809Z,0.16
2022-12-01T17:25:42.075Z,0.22
2022-12-01T17:29:19.501Z,0.21
2022-12-01T17:32:58.416Z,0.18
2022-12-01T17:36:34.910Z,0.12
2022-12-01T17:40:16.556Z,0.07
2022-12-01T17:43:50.218Z,0.05
2022-12-01T17:47:28.009Z,-0.01
2022-12-01T17:51:06.690Z,-0.04
2022-12-01T17:54:43.242Z,-0.02
2022-12-01T17:58:40.553Z,0.00
2022-12-01T18:02:21.285Z,0.05
2022-12-01T18:05:43.836Z,0.11
2022-12-01T18:09:40.097Z,0.12
2022-12-01T18:13:01.574Z,0.14
2022-12-01T18:16:39.302Z,0.14
2022-12-01T18:20:16.850Z,0.12
2022-12-01T18:23:58.275Z,0.06
2022-12-01T18:27:32.347Z,0.04
2022-12-01T18:31:13.114Z,-0.04
2022-12-01T18:34:47.951Z,-0.09
2022-12-01T18:38:46.540Z,-0.06
2022-12-01T18:42:10.981Z,-0.01
2022-12-01T18:46:06.097Z,0.02
2022-12-01T18:49:46.781Z,-0.02
2022-12-01T18:53:08.789Z,-0.04
2022-12-01T18:56:46.370Z,-0.05
2022-12-01T19:00:24.808Z,-0.11
2022-12-01T19:04:20.732Z,-0.17
2022-12-01T19:07:43.055Z,-0.23
2022-12-01T19:11:21.565Z,-0.28
2022-12-01T19:15:17.180Z,-0.31
2022-12-01T19:18:39.235Z,-0.30
2022-12-01T19:22:35.084Z,-0.28
2022-12-01T19:25:57.326Z,-0.24
2022-12-01T19:29:34.946Z,-0.19
2022-12-01T19:33:31.353Z,-0.18
2022-12-01T19:37:12.374Z,-0.19
2022-12-01T19:40:38.569Z,-0.20
2022-12-01T19:44:12.587Z,-0.21
2022-12-01T19:47:51.358Z,-0.25
2022-12-01T19:51:46.617Z,-0.26
2022-12-01T19:55:27.066Z,-0.26
2022-12-01T19:58:48.741Z,-0.25
2022-12-01T20:02:29.326Z,-0.26
2022-12-01T20:06:07.194Z,-0.29
2022-12-01T20:09:48.322Z,-0.32
2022-12-01T20:13:19.309Z,-0.31
2022-12-01T20:17:16.191Z,-0.30
2022-12-01T20:20:37.946Z,-0.36
2022-12-01T20:24:19.935Z,-0.45
2022-12-01T20:27:53.244Z,-0.47
2022-12-01T20:31:33.124Z,-0.45
2022-12-01T20:35:27.599Z,-0.38
2022-12-01T20:38:49.132Z,-0.34
2022-12-01T20:42:26.764Z,-0.37
2022-12-01T20:46:05.228Z,-0.46
2022-12-01T20:49:42.167Z,-0.53
2022-12-01T20:53:19.870Z,-0.58
2022-12-01T20:56:57.929Z,-0.59
2022-12-01T21:00:37.820Z,-0.57
2022-12-01T21:04:12.651Z,-0.56
2022-12-01T21:07:50.445Z,-0.54
2022-12-01T21:11:55.000Z,-0.52
2022-12-01T21:15:29.139Z,-0.52
2022-12-01T21:19:06.417Z,-0.52
2022-12-01T21:22:34.021Z,-0.55
2022-12-01T21:26:15.292Z,-0.59
2022-12-01T21:29:49.987Z,-0.61
2022-12-01T21:33:45.039Z,-0.59
2022-12-01T21:37:27.428Z,-0.54
2022-12-01T21:40:49.343Z,-0.49
2022-12-01T21:44:36.079Z,-0.45
2022-12-01T21:48:24.057Z,-0.40
2022-12-01T21:52:18.290Z,-0.35
2022-12-01T21:55:58.760Z,-0.33
2022-12-01T21:59:22.628Z,-0.39
2022-12-01T22:03:37.638Z,-0.50
2022-12-01T22:07:01.606Z,-0.57
2022-12-01T22:11:03.250Z,-0.58
2022-12-01T22:14:43.496Z,-0.61
2022-12-01T22:18:35.368Z,-0.58
2022-12-01T22:22:18.886Z,-0.55
2022-12-01T22:25:41.973Z,-0.54
2022-12-01T22:29:45.741Z,-0.56
2022-12-01T22:33:20.195Z,-0.62
2022-12-01T22:36:44.864Z,-0.69
2022-12-01T22:40:48.029Z,-0.74
2022-12-01T22:44:14.747Z,-0.76
2022-12-01T22:47:48.259Z,-0.80
2022-12-01T22:51:27.723Z,-0.85
2022-12-01T22:55:15.031Z,-0.84
2022-12-01T22:59:00.347Z,-0.87
2022-12-01T23:02:23.724Z,-0.87
2022-12-01T23:05:59.917Z,-0.84
2022-12-01T23:09:44.089Z,-0.83
2022-12-01T23:13:20.168Z,-0.82
2022-12-01T23:17:04.289Z,-0.83
2022-12-01T23:20:35.065Z,-0.85
2022-12-01T23:24:10.918Z,-0.89
2022-12-01T23:28:09.687Z,-0.91
2022-12-01T23:31:31.556Z,-0.95
2022-12-01T23:35:28.718Z,-0.97
2022-12-01T23:39:14.910Z,-0.95
2022-12-01T23:42:36.498Z,-0.92
2022-12-01T23:46:27.013Z,-0.90
2022-12-01T23:50:19.523Z,-0.92
2022-12-01T23:53:41.698Z,-0.93
2022-12-01T23:57:24.384Z,-0.94
